sensor_id;sensor_type;location;lat;lon;timestamp;temperature;humidity
26186;DHT22;20067;48.764;9.176;2022-11-15T00:01:48;9.60;91.30
26186;DHT22;20067;48.764;9.176;2022-11-15T00:04:14;9.60;91.30
26186;DHT22;20067;48.764;9.176;2022-11-15T00:06:39;9.60;91.30
26186;DHT22;20067;48.764;9.176;2022-11-15T00:09:05;9.70;91.30
26186;DHT22;20067;48.764;9.176;2022-11-15T00:11:31;9.80;91.30
26186;DHT22;20067;48.764;9.176;2022-11-15T00:13:57;9.80;91.30
26186;DHT22;20067;48.764;9.176;2022-11-15T00:16:23;9.90;91.30
26186;DHT22;20067;48.764;9.176;2022-11-15T00:18:49;9.80;91.30
26186;DHT22;20067;48.764;9.176;2022-11-15T00:21:16;9.70;91.30
26186;DHT22;20067;48.764;9.176;2022-11-15T00:23:42;9.70;91.30
26186;DHT22;20067;48.764;9.176;2022-11-15T00:26:13;9.60;91.30
26186;DHT22;20067;48.764;9.176;2022-11-15T00:28:39;9.70;91.30
26186;DHT22;20067;48.764;9.176;2022-11-15T00:31:08;9.80;91.30
26186;DHT22;20067;48.764;9.176;2022-11-15T00:33:34;9.90;91.30
26186;DHT22;20067;48.764;9.176;2022-11-15T00:36:06;9.90;91.30
26186;DHT22;20067;48.764;9.176;2022-11-15T00:38:33;9.90;91.30
26186;DHT22;20067;48.764;9.176;2022-11-15T00:40:59;9.90;91.30
26186;DHT22;20067;48.764;9.176;2022-11-15T00:43:25;9.70;91.30
26186;DHT22;20067;48.764;9.176;2022-11-15T00:45:50;9.50;91.30
26186;DHT22;20067;48.764;9.176;2022-11-15T00:48:16;9.50;91.30
26186;DHT22;20067;48.764;9.176;2022-11-15T00:50:41;9.30;91.30
26186;DHT22;20067;48.764;9.176;2022-11-15T00:53:07;9.50;91.30
26186;DHT22;20067;48.764;9.176;2022-11-15T00:55:33;9.60;91.30
26186;DHT22;20067;48.764;9.176;2022-11-15T00:57:58;9.60;91.30
26186;DHT22;20067;48.764;9.176;2022-11-15T01:00:24;9.60;91.30
26186;DHT22;20067;48.764;9.176;2022-11-15T01:02:49;9.50;91.30
26186;DHT22;20067;48.764;9.176;2022-11-15T01:05:15;9.60;91.30
26186;DHT22;20067;48.764;9.176;2022-11-15T01:07:41;9.70;91.30
26186;DHT22;20067;48.764;9.176;2022-11-15T01:10:07;9.70;91.30
26186;DHT22;20067;48.764;9.176;2022-11-15T01:12:33;9.60;91.30
26186;DHT22;20067;48.764;9.176;2022-11-15T01:14:58;9.40;91.30
26186;DHT22;20067;48.764;9.176;2022-11-15T01:17:24;9.30;91.30
26186;DHT22;20067;48.764;9.176;2022-11-15T01:19:50;9.40;91.30
26186;DHT22;20067;48.764;9.176;2022-11-15T01:22:16;9.30;91.30
26186;DHT22;20067;48.764;9.176;2022-11-15T01:24:41;9.30;91.30
26186;DHT22;20067;48.764;9.176;2022-11-15T01:27:07;9.40;91.30
26186;DHT22;20067;48.764;9.176;2022-11-15T01:29:33;9.50;91.30
26186;DHT22;20067;48.764;9.176;2022-11-15T01:31:59;9.50;91.30
26186;DHT22;20067;48.764;9.176;2022-11-15T01:34:24;9.50;91.30
26186;DHT22;20067;48.764;9.176;2022-11-15T01:36:50;9.60;91.30
26186;DHT22;20067;48.764;9.176;2022-11-15T01:39:16;9.50;91.30
26186;DHT22;20067;48.764;9.176;2022-11-15T01:41:42;9.60;91.30
26186;DHT22;20067;48.764;9.176;2022-11-15T01:47:23;9.50;91.30
26186;DHT22;20067;48.764;9.176;2022-11-15T01:50:00;9.40;91.30
26186;DHT22;20067;48.764;9.176;2022-11-15T01:52:29;9.40;91.30
26186;DHT22;20067;48.764;9.176;2022-11-15T01:55:11;9.40;91.30
26186;DHT22;20067;48.764;9.176;2022-11-15T01:57:42;9.40;91.30
26186;DHT22;20067;48.764;9.176;2022-11-15T02:00:10;9.30;91.30
26186;DHT22;20067;48.764;9.176;2022-11-15T02:02:37;9.00;91.30
26186;DHT22;20067;48.764;9.176;2022-11-15T02:05:03;8.80;91.30
26186;DHT22;20067;48.764;9.176;2022-11-15T02:07:30;9.00;91.30
26186;DHT22;20067;48.764;9.176;2022-11-15T02:09:59;9.10;91.30
26186;DHT22;20067;48.764;9.176;2022-11-15T02:12:27;9.00;91.30
26186;DHT22;20067;48.764;9.176;2022-11-15T02:14:54;9.00;91.30
26186;DHT22;20067;48.764;9.176;2022-11-15T02:17:50;9.00;91.30
26186;DHT22;20067;48.764;9.176;2022-11-15T02:29:04;8.80;91.30
26186;DHT22;20067;48.764;9.176;2022-11-15T02:37:17;8.80;91.30
26186;DHT22;20067;48.764;9.176;2022-11-15T02:40:07;8.90;91.30
26186;DHT22;20067;48.764;9.176;2022-11-15T02:42:41;8.80;91.30
26186;DHT22;20067;48.764;9.176;2022-11-15T02:45:32;8.70;91.30
26186;DHT22;20067;48.764;9.176;2022-11-15T02:48:01;8.80;91.30
26186;DHT22;20067;48.764;9.176;2022-11-15T02:50:29;8.80;91.30
26186;DHT22;20067;48.764;9.176;2022-11-15T02:52:56;8.90;91.30
26186;DHT22;20067;48.764;9.176;2022-11-15T02:55:27;8.90;91.30
26186;DHT22;20067;48.764;9.176;2022-11-15T03:00:47;8.90;91.30
26186;DHT22;20067;48.764;9.176;2022-11-15T03:08:32;9.00;91.30
26186;DHT22;20067;48.764;9.176;2022-11-15T03:16:30;8.90;91.30
26186;DHT22;20067;48.764;9.176;2022-11-15T03:21:47;8.90;91.30
26186;DHT22;20067;48.764;9.176;2022-11-15T03:24:16;8.90;91.30
26186;DHT22;20067;48.764;9.176;2022-11-15T03:26:44;8.80;91.30
26186;DHT22;20067;48.764;9.176;2022-11-15T03:29:17;8.70;91.30
26186;DHT22;20067;48.764;9.176;2022-11-15T03:31:52;8.70;91.30
26186;DHT22;20067;48.764;9.176;2022-11-15T03:34:22;8.70;91.30
26186;DHT22;20067;48.764;9.176;2022-11-15T03:36:51;8.70;91.30
26186;DHT22;20067;48.764;9.176;2022-11-15T03:39:18;8.80;91.30
26186;DHT22;20067;48.764;9.176;2022-11-15T03:42:02;8.80;91.30
26186;DHT22;20067;48.764;9.176;2022-11-15T03:47:28;8.70;91.30
26186;DHT22;20067;48.764;9.176;2022-11-15T03:50:07;8.90;91.30
26186;DHT22;20067;48.764;9.176;2022-11-15T03:52:34;8.90;91.30
26186;DHT22;20067;48.764;9.176;2022-11-15T03:55:01;8.90;91.30
26186;DHT22;20067;48.764;9.176;2022-11-15T03:57:28;8.80;91.30
26186;DHT22;20067;48.764;9.176;2022-11-15T03:59:54;8.80;91.30
26186;DHT22;20067;48.764;9.176;2022-11-15T04:02:20;8.70;91.30
26186;DHT22;20067;48.764;9.176;2022-11-15T04:04:45;8.70;91.30
26186;DHT22;20067;48.764;9.176;2022-11-15T04:07:11;8.80;91.30
26186;DHT22;20067;48.764;9.176;2022-11-15T04:09:37;8.80;91.30
26186;DHT22;20067;48.764;9.176;2022-11-15T04:12:21;8.80;91.30
26186;DHT22;20067;48.764;9.176;2022-11-15T04:14:57;8.70;91.30
26186;DHT22;20067;48.764;9.176;2022-11-15T04:17:55;8.60;91.30
26186;DHT22;20067;48.764;9.176;2022-11-15T04:20:22;8.70;91.30
26186;DHT22;20067;48.764;9.176;2022-11-15T04:23:10;8.60;91.30
26186;DHT22;20067;48.764;9.176;2022-11-15T04:25:57;8.70;91.30
26186;DHT22;20067;48.764;9.176;2022-11-15T04:28:23;8.80;91.30
26186;DHT22;20067;48.764;9.176;2022-11-15T04:30:49;8.70;91.30
26186;DHT22;20067;48.764;9.176;2022-11-15T04:33:15;8.60;91.30
26186;DHT22;20067;48.764;9.176;2022-11-15T04:35:41;8.80;91.30
26186;DHT22;20067;48.764;9.176;2022-11-15T04:38:08;8.70;91.30
26186;DHT22;20067;48.764;9.176;2022-11-15T04:40:35;8.70;91.30
26186;DHT22;20067;48.764;9.176;2022-11-15T04:43:01;8.60;91.30
26186;DHT22;20067;48.764;9.176;2022-11-15T04:45:27;8.60;91.30
26186;DHT22;20067;48.764;9.176;2022-11-15T04:47:52;8.70;91.30
26186;DHT22;20067;48.764;9.176;2022-11-15T04:50:18;8.80;91.30
26186;DHT22;20067;48.764;9.176;2022-11-15T04:52:51;8.50;91.30
26186;DHT22;20067;48.764;9.176;2022-11-15T04:55:17;8.50;91.30
26186;DHT22;20067;48.764;9.176;2022-11-15T04:57:43;8.60;91.30
26186;DHT22;20067;48.764;9.176;2022-11-15T05:00:12;8.60;91.30
26186;DHT22;20067;48.764;9.176;2022-11-15T05:02:38;8.60;91.30
26186;DHT22;20067;48.764;9.176;2022-11-15T05:05:23;8.60;91.30
26186;DHT22;20067;48.764;9.176;2022-11-15T05:07:48;8.50;91.30
26186;DHT22;20067;48.764;9.176;2022-11-15T05:10:14;8.50;91.30
26186;DHT22;20067;48.764;9.176;2022-11-15T05:12:40;8.60;91.30
26186;DHT22;20067;48.764;9.176;2022-11-15T05:15:06;8.60;91.30
26186;DHT22;20067;48.764;9.176;2022-11-15T05:17:31;8.50;91.30
26186;DHT22;20067;48.764;9.176;2022-11-15T05:19:57;8.60;91.30
26186;DHT22;20067;48.764;9.176;2022-11-15T05:22:23;8.60;91.30
26186;DHT22;20067;48.764;9.176;2022-11-15T05:24:48;8.50;91.30
26186;DHT22;20067;48.764;9.176;2022-11-15T05:27:14;8.50;91.30
26186;DHT22;20067;48.764;9.176;2022-11-15T05:29:39;8.50;91.30
26186;DHT22;20067;48.764;9.176;2022-11-15T05:32:06;8.50;91.30
26186;DHT22;20067;48.764;9.176;2022-11-15T05:34:33;8.60;91.30
26186;DHT22;20067;48.764;9.176;2022-11-15T05:36:59;8.50;91.30
26186;DHT22;20067;48.764;9.176;2022-11-15T05:39:25;8.60;91.30
26186;DHT22;20067;48.764;9.176;2022-11-15T05:41:59;8.60;91.30
26186;DHT22;20067;48.764;9.176;2022-11-15T05:44:27;8.50;91.30
26186;DHT22;20067;48.764;9.176;2022-11-15T05:46:54;8.50;91.30
26186;DHT22;20067;48.764;9.176;2022-11-15T05:49:26;8.60;91.30
26186;DHT22;20067;48.764;9.176;2022-11-15T05:51:54;8.50;91.30
26186;DHT22;20067;48.764;9.176;2022-11-15T05:54:20;8.50;91.30
26186;DHT22;20067;48.764;9.176;2022-11-15T05:56:47;8.50;91.30
26186;DHT22;20067;48.764;9.176;2022-11-15T05:59:13;8.60;91.30
26186;DHT22;20067;48.764;9.176;2022-11-15T06:01:39;8.40;91.30
26186;DHT22;20067;48.764;9.176;2022-11-15T06:04:05;8.40;91.30
26186;DHT22;20067;48.764;9.176;2022-11-15T06:06:31;8.50;91.30
26186;DHT22;20067;48.764;9.176;2022-11-15T06:08:56;8.60;91.30
26186;DHT22;20067;48.764;9.176;2022-11-15T06:11:22;8.60;91.30
26186;DHT22;20067;48.764;9.176;2022-11-15T06:13:48;8.60;91.30
26186;DHT22;20067;48.764;9.176;2022-11-15T06:16:13;8.60;91.30
26186;DHT22;20067;48.764;9.176;2022-11-15T06:18:39;8.70;91.30
26186;DHT22;20067;48.764;9.176;2022-11-15T06:21:05;8.60;91.30
26186;DHT22;20067;48.764;9.176;2022-11-15T06:23:35;8.60;91.30
26186;DHT22;20067;48.764;9.176;2022-11-15T06:26:01;8.70;91.30
26186;DHT22;20067;48.764;9.176;2022-11-15T06:28:29;8.70;91.30
26186;DHT22;20067;48.764;9.176;2022-11-15T06:30:54;8.80;91.30
26186;DHT22;20067;48.764;9.176;2022-11-15T06:33:20;8.80;91.30
26186;DHT22;20067;48.764;9.176;2022-11-15T06:35:46;8.90;91.30
26186;DHT22;20067;48.764;9.176;2022-11-15T06:38:11;8.80;91.30
26186;DHT22;20067;48.764;9.176;2022-11-15T06:40:38;8.80;91.30
26186;DHT22;20067;48.764;9.176;2022-11-15T06:43:04;8.90;91.30
26186;DHT22;20067;48.764;9.176;2022-11-15T06:45:30;8.90;91.30
26186;DHT22;20067;48.764;9.176;2022-11-15T06:47:57;8.80;91.30
26186;DHT22;20067;48.764;9.176;2022-11-15T06:50:23;8.90;91.30
26186;DHT22;20067;48.764;9.176;2022-11-15T06:52:49;9.00;91.30
26186;DHT22;20067;48.764;9.176;2022-11-15T06:55:14;9.00;91.30
26186;DHT22;20067;48.764;9.176;2022-11-15T06:57:50;8.90;91.30
26186;DHT22;20067;48.764;9.176;2022-11-15T07:00:19;9.00;91.30
26186;DHT22;20067;48.764;9.176;2022-11-15T07:02:44;9.00;91.30
26186;DHT22;20067;48.764;9.176;2022-11-15T07:05:11;9.00;91.30
26186;DHT22;20067;48.764;9.176;2022-11-15T07:07:37;9.00;91.30
26186;DHT22;20067;48.764;9.176;2022-11-15T07:10:03;8.90;91.30
26186;DHT22;20067;48.764;9.176;2022-11-15T07:12:28;9.00;91.30
26186;DHT22;20067;48.764;9.176;2022-11-15T07:14:54;9.10;91.30
26186;DHT22;20067;48.764;9.176;2022-11-15T07:17:19;9.10;91.30
26186;DHT22;20067;48.764;9.176;2022-11-15T07:19:45;9.20;91.30
26186;DHT22;20067;48.764;9.176;2022-11-15T07:22:11;9.20;91.30
26186;DHT22;20067;48.764;9.176;2022-11-15T07:24:36;9.30;91.30
26186;DHT22;20067;48.764;9.176;2022-11-15T07:27:02;9.40;91.30
26186;DHT22;20067;48.764;9.176;2022-11-15T07:29:27;9.50;91.30
26186;DHT22;20067;48.764;9.176;2022-11-15T07:31:53;9.50;91.30
26186;DHT22;20067;48.764;9.176;2022-11-15T07:34:19;9.50;91.30
26186;DHT22;20067;48.764;9.176;2022-11-15T07:36:45;9.60;91.30
26186;DHT22;20067;48.764;9.176;2022-11-15T07:39:10;9.80;91.30
26186;DHT22;20067;48.764;9.176;2022-11-15T07:41:37;9.80;91.30
26186;DHT22;20067;48.764;9.176;2022-11-15T07:44:04;10.00;91.30
26186;DHT22;20067;48.764;9.176;2022-11-15T07:46:29;10.00;91.30
26186;DHT22;20067;48.764;9.176;2022-11-15T07:48:56;10.20;91.30
26186;DHT22;20067;48.764;9.176;2022-11-15T07:51:21;10.30;91.30
26186;DHT22;20067;48.764;9.176;2022-11-15T07:53:47;10.50;91.30
26186;DHT22;20067;48.764;9.176;2022-11-15T07:56:15;10.80;91.30
26186;DHT22;20067;48.764;9.176;2022-11-15T07:58:41;11.00;91.30
26186;DHT22;20067;48.764;9.176;2022-11-15T08:01:09;11.20;91.30
26186;DHT22;20067;48.764;9.176;2022-11-15T08:03:35;11.20;91.30
26186;DHT22;20067;48.764;9.176;2022-11-15T08:06:01;11.40;91.30
26186;DHT22;20067;48.764;9.176;2022-11-15T08:08:26;11.60;91.30
26186;DHT22;20067;48.764;9.176;2022-11-15T08:10:52;11.70;91.30
26186;DHT22;20067;48.764;9.176;2022-11-15T08:13:18;11.80;91.30
26186;DHT22;20067;48.764;9.176;2022-11-15T08:15:43;11.90;90.70
26186;DHT22;20067;48.764;9.176;2022-11-15T08:18:14;12.00;90.20
26186;DHT22;20067;48.764;9.176;2022-11-15T08:20:41;12.10;89.90
26186;DHT22;20067;48.764;9.176;2022-11-15T08:23:07;12.10;89.00
26186;DHT22;20067;48.764;9.176;2022-11-15T08:25:35;12.20;89.60
26186;DHT22;20067;48.764;9.176;2022-11-15T08:28:03;12.40;89.20
26186;DHT22;20067;48.764;9.176;2022-11-15T08:30:30;12.20;88.60
26186;DHT22;20067;48.764;9.176;2022-11-15T08:32:57;12.30;89.30
26186;DHT22;20067;48.764;9.176;2022-11-15T08:35:23;12.20;89.50
26186;DHT22;20067;48.764;9.176;2022-11-15T08:37:49;12.30;89.80
26186;DHT22;20067;48.764;9.176;2022-11-15T08:40:15;12.50;89.40
26186;DHT22;20067;48.764;9.176;2022-11-15T08:42:41;12.80;88.30
26186;DHT22;20067;48.764;9.176;2022-11-15T08:45:08;13.20;87.10
26186;DHT22;20067;48.764;9.176;2022-11-15T08:47:34;14.10;85.90
26186;DHT22;20067;48.764;9.176;2022-11-15T08:50:00;15.00;82.90
26186;DHT22;20067;48.764;9.176;2022-11-15T08:52:26;16.10;79.70
26186;DHT22;20067;48.764;9.176;2022-11-15T08:54:51;16.80;77.50
26186;DHT22;20067;48.764;9.176;2022-11-15T08:57:17;17.30;75.50
26186;DHT22;20067;48.764;9.176;2022-11-15T08:59:43;17.50;75.10
26186;DHT22;20067;48.764;9.176;2022-11-15T09:02:13;18.00;73.50
26186;DHT22;20067;48.764;9.176;2022-11-15T09:04:40;18.50;72.50
26186;DHT22;20067;48.764;9.176;2022-11-15T09:07:07;17.20;73.50
26186;DHT22;20067;48.764;9.176;2022-11-15T09:09:32;17.60;74.10
26186;DHT22;20067;48.764;9.176;2022-11-15T09:11:58;18.30;71.50
26186;DHT22;20067;48.764;9.176;2022-11-15T09:14:23;19.50;71.80
26186;DHT22;20067;48.764;9.176;2022-11-15T09:16:49;20.30;68.00
26186;DHT22;20067;48.764;9.176;2022-11-15T09:19:14;20.90;66.10
26186;DHT22;20067;48.764;9.176;2022-11-15T09:21:40;20.50;65.40
26186;DHT22;20067;48.764;9.176;2022-11-15T09:24:06;19.30;69.40
26186;DHT22;20067;48.764;9.176;2022-11-15T09:26:32;19.20;68.40
26186;DHT22;20067;48.764;9.176;2022-11-15T09:28:57;19.10;70.80
26186;DHT22;20067;48.764;9.176;2022-11-15T09:31:23;19.20;68.60
26186;DHT22;20067;48.764;9.176;2022-11-15T09:33:49;18.40;70.60
26186;DHT22;20067;48.764;9.176;2022-11-15T09:36:15;18.90;69.10
26186;DHT22;20067;48.764;9.176;2022-11-15T09:38:42;18.90;69.00
26186;DHT22;20067;48.764;9.176;2022-11-15T09:44:07;18.20;71.00
26186;DHT22;20067;48.764;9.176;2022-11-15T09:46:49;18.00;72.00
26186;DHT22;20067;48.764;9.176;2022-11-15T09:49:21;18.30;70.40
26186;DHT22;20067;48.764;9.176;2022-11-15T09:51:49;19.80;69.00
26186;DHT22;20067;48.764;9.176;2022-11-15T09:57:04;20.80;64.60
26186;DHT22;20067;48.764;9.176;2022-11-15T10:02:13;19.20;68.60
26186;DHT22;20067;48.764;9.176;2022-11-15T10:04:43;19.50;67.00
26186;DHT22;20067;48.764;9.176;2022-11-15T10:07:23;19.90;65.80
26186;DHT22;20067;48.764;9.176;2022-11-15T10:09:52;20.00;65.80
26186;DHT22;20067;48.764;9.176;2022-11-15T10:12:20;19.40;67.30
26186;DHT22;20067;48.764;9.176;2022-11-15T10:14:48;19.50;66.90
26186;DHT22;20067;48.764;9.176;2022-11-15T10:22:51;17.90;71.30
26186;DHT22;20067;48.764;9.176;2022-11-15T10:25:24;17.70;71.50
26186;DHT22;20067;48.764;9.176;2022-11-15T10:30:43;16.80;73.80
26186;DHT22;20067;48.764;9.176;2022-11-15T10:33:16;16.60;74.20
26186;DHT22;20067;48.764;9.176;2022-11-15T10:35:43;16.20;75.40
26186;DHT22;20067;48.764;9.176;2022-11-15T10:38:10;16.10;76.50
26186;DHT22;20067;48.764;9.176;2022-11-15T10:40:37;16.10;76.40
26186;DHT22;20067;48.764;9.176;2022-11-15T10:43:12;16.10;77.40
26186;DHT22;20067;48.764;9.176;2022-11-15T10:45:38;16.10;76.70
26186;DHT22;20067;48.764;9.176;2022-11-15T10:50:41;15.90;77.90
26186;DHT22;20067;48.764;9.176;2022-11-15T10:53:31;15.90;78.20
26186;DHT22;20067;48.764;9.176;2022-11-15T10:56:05;16.00;78.10
26186;DHT22;20067;48.764;9.176;2022-11-15T10:58:41;15.90;78.10
26186;DHT22;20067;48.764;9.176;2022-11-15T11:01:12;15.60;78.80
26186;DHT22;20067;48.764;9.176;2022-11-15T11:03:39;15.60;79.50
26186;DHT22;20067;48.764;9.176;2022-11-15T11:06:09;15.50;79.70
26186;DHT22;20067;48.764;9.176;2022-11-15T11:08:35;15.50;80.00
26186;DHT22;20067;48.764;9.176;2022-11-15T11:11:03;15.50;80.00
26186;DHT22;20067;48.764;9.176;2022-11-15T11:13:39;15.50;79.90
26186;DHT22;20067;48.764;9.176;2022-11-15T11:18:46;15.40;80.30
26186;DHT22;20067;48.764;9.176;2022-11-15T11:21:25;15.10;81.10
26186;DHT22;20067;48.764;9.176;2022-11-15T11:24:02;15.10;81.80
26186;DHT22;20067;48.764;9.176;2022-11-15T11:34:43;15.20;82.10
26186;DHT22;20067;48.764;9.176;2022-11-15T11:37:50;15.50;82.00
26186;DHT22;20067;48.764;9.176;2022-11-15T11:45:53;15.50;81.50
26186;DHT22;20067;48.764;9.176;2022-11-15T11:53:55;15.50;82.40
26186;DHT22;20067;48.764;9.176;2022-11-15T11:56:27;15.50;81.80
26186;DHT22;20067;48.764;9.176;2022-11-15T11:58:57;15.70;81.60
26186;DHT22;20067;48.764;9.176;2022-11-15T12:01:30;15.70;81.60
26186;DHT22;20067;48.764;9.176;2022-11-15T12:04:08;15.80;81.20
26186;DHT22;20067;48.764;9.176;2022-11-15T12:06:56;15.70;81.50
26186;DHT22;20067;48.764;9.176;2022-11-15T12:15:02;16.50;80.00
26186;DHT22;20067;48.764;9.176;2022-11-15T12:17:30;16.70;78.90
26186;DHT22;20067;48.764;9.176;2022-11-15T12:20:13;16.70;79.30
26186;DHT22;20067;48.764;9.176;2022-11-15T12:25:51;16.40;79.20
26186;DHT22;20067;48.764;9.176;2022-11-15T12:31:11;16.20;80.80
26186;DHT22;20067;48.764;9.176;2022-11-15T12:33:43;16.20;80.10
26186;DHT22;20067;48.764;9.176;2022-11-15T12:36:38;16.10;80.80
26186;DHT22;20067;48.764;9.176;2022-11-15T12:39:07;16.00;81.20
26186;DHT22;20067;48.764;9.176;2022-11-15T12:47:03;15.50;82.70
26186;DHT22;20067;48.764;9.176;2022-11-15T13:17:44;14.90;85.70
26186;DHT22;20067;48.764;9.176;2022-11-15T13:30:52;14.50;86.90
26186;DHT22;20067;48.764;9.176;2022-11-15T13:35:52;14.60;86.20
26186;DHT22;20067;48.764;9.176;2022-11-15T13:38:31;14.60;85.90
26186;DHT22;20067;48.764;9.176;2022-11-15T13:40:58;14.60;85.60
26186;DHT22;20067;48.764;9.176;2022-11-15T13:43:28;14.60;85.20
26186;DHT22;20067;48.764;9.176;2022-11-15T13:48:33;14.60;85.10
26186;DHT22;20067;48.764;9.176;2022-11-15T13:51:01;14.60;85.10
26186;DHT22;20067;48.764;9.176;2022-11-15T13:53:31;14.60;85.00
26186;DHT22;20067;48.764;9.176;2022-11-15T13:55:58;14.50;85.20
26186;DHT22;20067;48.764;9.176;2022-11-15T13:58:24;14.60;85.30
26186;DHT22;20067;48.764;9.176;2022-11-15T14:01:02;14.60;85.90
26186;DHT22;20067;48.764;9.176;2022-11-15T14:03:32;14.50;86.70
26186;DHT22;20067;48.764;9.176;2022-11-15T14:06:02;14.40;87.30
26186;DHT22;20067;48.764;9.176;2022-11-15T14:08:29;14.30;88.60
26186;DHT22;20067;48.764;9.176;2022-11-15T14:11:16;14.40;88.70
26186;DHT22;20067;48.764;9.176;2022-11-15T14:16:34;14.40;88.90
26186;DHT22;20067;48.764;9.176;2022-11-15T14:19:00;14.30;89.50
26186;DHT22;20067;48.764;9.176;2022-11-15T14:21:26;14.30;89.70
26186;DHT22;20067;48.764;9.176;2022-11-15T14:23:52;14.40;89.90
26186;DHT22;20067;48.764;9.176;2022-11-15T14:26:27;14.40;89.10
26186;DHT22;20067;48.764;9.176;2022-11-15T14:28:53;14.20;89.00
26186;DHT22;20067;48.764;9.176;2022-11-15T14:31:19;14.10;89.40
26186;DHT22;20067;48.764;9.176;2022-11-15T14:33:46;14.10;89.00
26186;DHT22;20067;48.764;9.176;2022-11-15T14:36:18;14.10;87.60
26186;DHT22;20067;48.764;9.176;2022-11-15T14:38:44;14.00;87.70
26186;DHT22;20067;48.764;9.176;2022-11-15T14:41:24;14.10;89.00
26186;DHT22;20067;48.764;9.176;2022-11-15T14:43:51;14.10;88.70
26186;DHT22;20067;48.764;9.176;2022-11-15T14:46:16;14.20;89.70
26186;DHT22;20067;48.764;9.176;2022-11-15T14:48:42;14.20;90.90
26186;DHT22;20067;48.764;9.176;2022-11-15T14:51:13;14.20;90.80
26186;DHT22;20067;48.764;9.176;2022-11-15T14:53:40;14.20;90.40
26186;DHT22;20067;48.764;9.176;2022-11-15T14:56:05;14.10;91.20
26186;DHT22;20067;48.764;9.176;2022-11-15T14:58:31;14.20;91.10
26186;DHT22;20067;48.764;9.176;2022-11-15T15:00:56;14.20;87.40
26186;DHT22;20067;48.764;9.176;2022-11-15T15:03:22;14.30;87.00
26186;DHT22;20067;48.764;9.176;2022-11-15T15:05:48;14.30;86.40
26186;DHT22;20067;48.764;9.176;2022-11-15T15:08:14;14.30;88.90
26186;DHT22;20067;48.764;9.176;2022-11-15T15:10:44;14.20;89.70
26186;DHT22;20067;48.764;9.176;2022-11-15T15:13:19;14.30;86.30
26186;DHT22;20067;48.764;9.176;2022-11-15T15:15:46;14.30;86.10
26186;DHT22;20067;48.764;9.176;2022-11-15T15:18:12;14.30;85.40
26186;DHT22;20067;48.764;9.176;2022-11-15T15:20:39;14.20;85.50
26186;DHT22;20067;48.764;9.176;2022-11-15T15:23:18;14.10;85.70
26186;DHT22;20067;48.764;9.176;2022-11-15T15:25:44;14.10;85.60
26186;DHT22;20067;48.764;9.176;2022-11-15T15:28:11;14.10;85.40
26186;DHT22;20067;48.764;9.176;2022-11-15T15:30:36;14.10;85.60
26186;DHT22;20067;48.764;9.176;2022-11-15T15:33:02;14.10;86.00
26186;DHT22;20067;48.764;9.176;2022-11-15T15:35:30;14.10;86.00
26186;DHT22;20067;48.764;9.176;2022-11-15T15:37:57;14.10;86.30
26186;DHT22;20067;48.764;9.176;2022-11-15T15:40:24;14.00;86.90
26186;DHT22;20067;48.764;9.176;2022-11-15T15:42:50;13.90;87.30
26186;DHT22;20067;48.764;9.176;2022-11-15T15:45:17;13.90;87.80
26186;DHT22;20067;48.764;9.176;2022-11-15T15:47:43;13.90;87.30
26186;DHT22;20067;48.764;9.176;2022-11-15T15:52:48;14.00;86.80
26186;DHT22;20067;48.764;9.176;2022-11-15T15:55:14;13.90;87.20
26186;DHT22;20067;48.764;9.176;2022-11-15T15:57:39;13.90;87.00
26186;DHT22;20067;48.764;9.176;2022-11-15T16:00:05;13.90;87.40
26186;DHT22;20067;48.764;9.176;2022-11-15T16:02:31;13.90;86.90
26186;DHT22;20067;48.764;9.176;2022-11-15T16:04:57;13.90;86.60
26186;DHT22;20067;48.764;9.176;2022-11-15T16:07:23;13.90;85.90
26186;DHT22;20067;48.764;9.176;2022-11-15T16:09:53;13.90;85.90
26186;DHT22;20067;48.764;9.176;2022-11-15T16:12:25;14.00;85.20
26186;DHT22;20067;48.764;9.176;2022-11-15T16:14:51;14.10;85.10
26186;DHT22;20067;48.764;9.176;2022-11-15T16:17:19;14.10;85.20
26186;DHT22;20067;48.764;9.176;2022-11-15T16:19:45;14.10;85.10
26186;DHT22;20067;48.764;9.176;2022-11-15T16:22:11;14.10;84.90
26186;DHT22;20067;48.764;9.176;2022-11-15T16:24:36;14.10;84.80
26186;DHT22;20067;48.764;9.176;2022-11-15T16:27:02;14.10;84.70
26186;DHT22;20067;48.764;9.176;2022-11-15T16:29:28;14.10;84.70
26186;DHT22;20067;48.764;9.176;2022-11-15T16:31:54;14.20;84.00
26186;DHT22;20067;48.764;9.176;2022-11-15T16:34:19;14.20;84.20
26186;DHT22;20067;48.764;9.176;2022-11-15T16:36:45;14.20;84.30
26186;DHT22;20067;48.764;9.176;2022-11-15T16:39:13;14.20;84.50
26186;DHT22;20067;48.764;9.176;2022-11-15T16:41:39;14.20;84.70
26186;DHT22;20067;48.764;9.176;2022-11-15T16:44:05;14.20;84.40
26186;DHT22;20067;48.764;9.176;2022-11-15T16:46:31;14.20;84.20
26186;DHT22;20067;48.764;9.176;2022-11-15T16:48:56;14.20;84.40
26186;DHT22;20067;48.764;9.176;2022-11-15T16:51:22;14.10;85.20
26186;DHT22;20067;48.764;9.176;2022-11-15T16:53:48;14.20;84.80
26186;DHT22;20067;48.764;9.176;2022-11-15T16:56:34;14.20;85.90
26186;DHT22;20067;48.764;9.176;2022-11-15T16:59:01;14.00;87.20
26186;DHT22;20067;48.764;9.176;2022-11-15T17:01:34;14.00;88.40
26186;DHT22;20067;48.764;9.176;2022-11-15T17:04:01;13.90;89.70
26186;DHT22;20067;48.764;9.176;2022-11-15T17:06:42;13.90;90.50
26186;DHT22;20067;48.764;9.176;2022-11-15T17:09:19;13.80;91.10
26186;DHT22;20067;48.764;9.176;2022-11-15T17:11:45;13.70;90.90
26186;DHT22;20067;48.764;9.176;2022-11-15T17:14:11;13.70;90.00
26186;DHT22;20067;48.764;9.176;2022-11-15T17:16:38;13.70;90.70
26186;DHT22;20067;48.764;9.176;2022-11-15T17:19:11;13.70;88.60
26186;DHT22;20067;48.764;9.176;2022-11-15T17:21:37;13.90;87.40
26186;DHT22;20067;48.764;9.176;2022-11-15T17:24:03;13.90;87.00
26186;DHT22;20067;48.764;9.176;2022-11-15T17:26:29;13.90;87.70
26186;DHT22;20067;48.764;9.176;2022-11-15T17:28:55;13.90;87.50
26186;DHT22;20067;48.764;9.176;2022-11-15T17:31:22;13.90;88.00
26186;DHT22;20067;48.764;9.176;2022-11-15T17:33:47;13.80;88.00
26186;DHT22;20067;48.764;9.176;2022-11-15T17:36:13;13.80;88.30
26186;DHT22;20067;48.764;9.176;2022-11-15T17:38:41;13.80;88.50
26186;DHT22;20067;48.764;9.176;2022-11-15T17:41:14;13.70;88.90
26186;DHT22;20067;48.764;9.176;2022-11-15T17:43:40;13.70;89.30
26186;DHT22;20067;48.764;9.176;2022-11-15T17:46:11;13.70;89.50
26186;DHT22;20067;48.764;9.176;2022-11-15T17:48:37;13.60;89.90
26186;DHT22;20067;48.764;9.176;2022-11-15T17:51:05;13.60;90.20
26186;DHT22;20067;48.764;9.176;2022-11-15T17:53:33;13.60;90.40
26186;DHT22;20067;48.764;9.176;2022-11-15T17:56:04;13.60;90.60
26186;DHT22;20067;48.764;9.176;2022-11-15T17:58:31;13.60;90.60
26186;DHT22;20067;48.764;9.176;2022-11-15T18:03:37;13.50;91.10
26186;DHT22;20067;48.764;9.176;2022-11-15T18:06:05;13.50;91.30
26186;DHT22;20067;48.764;9.176;2022-11-15T18:08:31;13.50;91.30
26186;DHT22;20067;48.764;9.176;2022-11-15T18:11:02;13.40;91.30
26186;DHT22;20067;48.764;9.176;2022-11-15T18:13:28;13.40;91.30